createdAt,value
2023-03-13T00:00:17.678Z,8.29
2023-03-13T00:01:17.701Z,8.28
2023-03-13T00:02:17.682Z,8.28
2023-03-13T00:03:17.641Z,8.22
2023-03-13T00:04:17.613Z,8.20
2023-03-13T00:05:17.628Z,8.20
2023-03-13T00:06:18.524Z,8.18
2023-03-13T00:07:17.595Z,8.17
2023-03-13T00:08:17.547Z,8.17
2023-03-13T00:09:17.569Z,8.15
2023-03-13T00:10:17.538Z,8.17
2023-03-13T00:11:17.551Z,8.14
2023-03-13T00:12:17.503Z,8.12
2023-03-13T00:13:17.524Z,8.12
2023-03-13T00:14:17.526Z,8.11
2023-03-13T00:15:17.494Z,8.10
2023-03-13T00:16:17.557Z,8.10
2023-03-13T00:17:17.502Z,8.10
2023-03-13T00:18:17.434Z,8.08
2023-03-13T00:19:17.466Z,8.07
2023-03-13T00:20:17.415Z,8.07
2023-03-13T00:21:17.434Z,8.03
2023-03-13T00:22:17.411Z,8.02
2023-03-13T00:23:17.418Z,8.02
2023-03-13T00:24:17.380Z,8.03
2023-03-13T00:25:17.390Z,8.02
2023-03-13T00:26:17.352Z,8.00
2023-03-13T00:27:17.356Z,8.00
2023-03-13T00:28:17.336Z,7.96
2023-03-13T00:29:17.331Z,7.97
2023-03-13T00:30:17.313Z,7.97
2023-03-13T00:31:17.476Z,7.96
2023-03-13T00:32:17.355Z,7.94
2023-03-13T00:33:17.288Z,7.96
2023-03-13T00:34:17.261Z,7.96
2023-03-13T00:35:17.331Z,7.94
2023-03-13T00:36:17.295Z,7.93
2023-03-13T00:37:17.272Z,7.93
2023-03-13T00:38:17.211Z,7.93
2023-03-13T00:39:17.228Z,7.92
2023-03-13T00:40:17.198Z,7.90
2023-03-13T00:41:17.219Z,7.89
2023-03-13T00:42:17.275Z,7.87
2023-03-13T00:43:17.173Z,7.90
2023-03-13T00:44:17.166Z,7.89
2023-03-13T00:45:17.148Z,7.89
2023-03-13T00:46:17.206Z,7.89
2023-03-13T00:47:17.131Z,7.87
2023-03-13T00:48:17.140Z,7.89
2023-03-13T00:49:17.096Z,7.89
2023-03-13T00:50:17.127Z,7.90
2023-03-13T00:51:17.079Z,7.89
2023-03-13T00:52:17.102Z,7.89
2023-03-13T00:53:17.040Z,7.89
2023-03-13T00:54:17.089Z,7.92
2023-03-13T00:55:17.032Z,7.90
2023-03-13T00:56:17.066Z,7.92
2023-03-13T00:57:17.019Z,7.92
2023-03-13T00:58:17.021Z,7.92
2023-03-13T00:59:16.977Z,7.90
2023-03-13T01:00:17.005Z,7.92
2023-03-13T01:01:16.968Z,7.92
2023-03-13T01:02:17.163Z,7.93
2023-03-13T01:03:17.109Z,7.96
2023-03-13T01:04:16.945Z,7.93
2023-03-13T01:05:16.949Z,7.94
2023-03-13T01:06:16.954Z,7.96
2023-03-13T01:07:16.955Z,7.97
2023-03-13T01:08:16.911Z,8.00
2023-03-13T01:09:16.880Z,7.99
2023-03-13T01:10:16.895Z,7.99
2023-03-13T01:11:16.856Z,8.00
2023-03-13T01:12:16.895Z,8.02
2023-03-13T01:13:16.857Z,8.03
2023-03-13T01:14:16.880Z,8.03
2023-03-13T01:15:16.850Z,8.03
2023-03-13T01:16:16.944Z,8.04
2023-03-13T01:17:16.829Z,8.04
2023-03-13T01:18:17.589Z,8.08
2023-03-13T01:19:16.810Z,8.07
2023-03-13T01:20:16.784Z,8.10
2023-03-13T01:21:16.762Z,8.08
2023-03-13T01:22:16.758Z,8.10
2023-03-13T01:23:16.737Z,8.08
2023-03-13T01:24:16.781Z,8.07
2023-03-13T01:25:16.713Z,8.08
2023-03-13T01:26:16.777Z,8.08
2023-03-13T01:27:16.696Z,8.07
2023-03-13T01:28:16.690Z,8.07
2023-03-13T01:29:16.681Z,8.04
2023-03-13T01:30:16.746Z,8.04
2023-03-13T01:31:16.674Z,8.07
2023-03-13T01:32:16.722Z,8.07
2023-03-13T01:33:16.644Z,8.07
2023-03-13T01:34:16.628Z,8.07
2023-03-13T01:35:16.668Z,8.07
2023-03-13T01:36:16.637Z,8.07
2023-03-13T01:37:16.616Z,8.07
2023-03-13T01:38:16.618Z,8.07
2023-03-13T01:39:16.566Z,8.07
2023-03-13T01:40:16.569Z,8.08
2023-03-13T01:41:16.535Z,8.07
2023-03-13T01:42:16.556Z,8.07
2023-03-13T01:43:26.047Z,8.10
2023-03-13T01:44:17.516Z,8.07
2023-03-13T01:45:16.487Z,8.08
2023-03-13T01:46:16.642Z,8.08
2023-03-13T01:47:16.487Z,8.07
2023-03-13T01:48:16.500Z,8.08
2023-03-13T01:49:16.468Z,8.10
2023-03-13T01:50:16.448Z,8.11
2023-03-13T01:51:16.425Z,8.11
2023-03-13T01:52:16.439Z,8.12
2023-03-13T01:53:16.400Z,8.11
2023-03-13T01:54:16.435Z,8.12
2023-03-13T01:55:16.384Z,8.14
2023-03-13T01:56:16.417Z,8.12
2023-03-13T01:57:16.359Z,8.14
2023-03-13T01:58:16.375Z,8.14
2023-03-13T01:59:16.350Z,8.15
2023-03-13T02:00:18.793Z,8.15
2023-03-13T02:01:16.348Z,8.15
2023-03-13T02:02:16.314Z,8.15
2023-03-13T02:03:24.842Z,8.15
2023-03-13T02:04:16.306Z,8.15
2023-03-13T02:05:16.298Z,8.17
2023-03-13T02:06:16.286Z,8.17
2023-03-13T02:07:16.248Z,8.15
2023-03-13T02:08:16.282Z,8.17
2023-03-13T02:09:16.234Z,8.17
2023-03-13T02:10:16.245Z,8.17
2023-03-13T02:11:16.217Z,8.18
2023-03-13T02:12:16.229Z,8.18
2023-03-13T02:13:16.194Z,8.18
2023-03-13T02:14:16.209Z,8.20
2023-03-13T02:15:16.173Z,8.18
2023-03-13T02:16:16.243Z,8.18
2023-03-13T02:17:16.134Z,8.18
2023-03-13T02:18:16.167Z,8.20
2023-03-13T02:19:16.126Z,8.18
2023-03-13T02:20:16.144Z,8.18
2023-03-13T02:21:16.102Z,8.18
2023-03-13T02:22:16.104Z,8.20
2023-03-13T02:23:16.066Z,8.18
2023-03-13T02:24:16.076Z,8.18
2023-03-13T02:25:16.054Z,8.18
2023-03-13T02:26:16.057Z,8.18
2023-03-13T02:27:16.018Z,8.18
2023-03-13T02:28:16.086Z,8.17
2023-03-13T02:29:16.009Z,8.18
2023-03-13T02:30:16.056Z,8.17
2023-03-13T02:31:16.041Z,8.18
2023-03-13T02:32:16.006Z,8.18
2023-03-13T02:33:16.027Z,8.20
2023-03-13T02:34:15.969Z,8.18
2023-03-13T02:35:15.968Z,8.18
2023-03-13T02:36:15.973Z,8.20
2023-03-13T02:37:15.899Z,8.20
2023-03-13T02:38:15.926Z,8.20
2023-03-13T02:39:15.895Z,8.20
2023-03-13T02:40:15.924Z,8.20
2023-03-13T02:41:15.886Z,8.20
2023-03-13T02:42:15.884Z,8.22
2023-03-13T02:43:15.843Z,8.22
2023-03-13T02:44:15.866Z,8.22
2023-03-13T02:45:15.857Z,8.22
2023-03-13T02:46:15.908Z,8.26
2023-03-13T02:47:15.807Z,8.30
2023-03-13T02:48:15.816Z,8.33
2023-03-13T02:49:15.800Z,8.37
2023-03-13T02:50:15.804Z,8.44
2023-03-13T02:51:15.759Z,8.48
2023-03-13T02:52:15.773Z,8.51
2023-03-13T02:53:15.752Z,8.58
2023-03-13T02:54:15.750Z,8.62
2023-03-13T02:55:15.727Z,8.66
2023-03-13T02:56:15.733Z,8.68
2023-03-13T02:57:15.712Z,8.71
2023-03-13T02:58:15.723Z,8.75
2023-03-13T02:59:15.683Z,8.79
2023-03-13T03:00:15.697Z,8.79
2023-03-13T03:01:15.700Z,8.83
2023-03-13T03:02:15.673Z,8.86
2023-03-13T03:03:15.648Z,8.84
2023-03-13T03:04:15.716Z,8.86
2023-03-13T03:05:15.614Z,8.86
2023-03-13T03:06:15.623Z,8.87
2023-03-13T03:07:15.605Z,8.86
2023-03-13T03:08:15.617Z,8.87
2023-03-13T03:09:15.596Z,8.87
2023-03-13T03:10:15.584Z,8.87
2023-03-13T03:11:15.548Z,8.86
2023-03-13T03:12:15.595Z,8.86
2023-03-13T03:13:15.524Z,8.84
2023-03-13T03:14:15.547Z,8.84
2023-03-13T03:15:15.520Z,8.83
2023-03-13T03:16:15.582Z,8.81
2023-03-13T03:17:15.499Z,8.81
2023-03-13T03:18:15.495Z,8.81
2023-03-13T03:19:15.465Z,8.78
2023-03-13T03:20:15.495Z,8.79
2023-03-13T03:21:15.468Z,8.83
2023-03-13T03:22:15.460Z,8.81
2023-03-13T03:23:15.416Z,8.81
2023-03-13T03:24:15.435Z,8.81
2023-03-13T03:25:15.441Z,8.81
2023-03-13T03:26:15.396Z,8.81
2023-03-13T03:27:15.362Z,8.81
2023-03-13T03:28:15.375Z,8.79
2023-03-13T03:29:15.342Z,8.83
2023-03-13T03:30:15.386Z,8.84
2023-03-13T03:31:15.436Z,8.81
2023-03-13T03:32:15.335Z,8.83
2023-03-13T03:33:15.302Z,8.84
2023-03-13T03:34:15.314Z,8.83
2023-03-13T03:35:15.299Z,8.83
2023-03-13T03:36:15.401Z,8.81
2023-03-13T03:37:15.245Z,8.83
2023-03-13T03:38:15.276Z,8.84
2023-03-13T03:39:16.186Z,8.86
2023-03-13T03:40:15.265Z,8.86
2023-03-13T03:41:15.239Z,8.86
2023-03-13T03:42:15.217Z,8.88
2023-03-13T03:43:15.182Z,8.88
2023-03-13T03:44:15.213Z,8.88
2023-03-13T03:45:15.159Z,8.91
2023-03-13T03:46:15.236Z,8.91
2023-03-13T03:47:15.281Z,8.93
2023-03-13T03:48:15.150Z,8.93
2023-03-13T03:49:15.128Z,8.93
2023-03-13T03:50:15.178Z,8.91
2023-03-13T03:51:15.117Z,8.91
2023-03-13T03:52:15.122Z,8.90
2023-03-13T03:53:15.072Z,8.91
2023-03-13T03:54:15.146Z,8.90
2023-03-13T03:55:15.135Z,8.93
2023-03-13T03:56:15.072Z,8.94
2023-03-13T03:57:15.103Z,8.96
2023-03-13T03:58:15.108Z,8.99
2023-03-13T03:59:15.064Z,8.99
2023-03-13T04:00:15.030Z,8.99
2023-03-13T04:01:15.022Z,8.97
2023-03-13T04:02:15.108Z,8.97
2023-03-13T04:03:15.011Z,8.97
2023-03-13T04:04:14.991Z,8.99
2023-03-13T04:05:14.978Z,8.99
2023-03-13T04:06:14.974Z,9.02
2023-03-13T04:07:14.971Z,9.05
2023-03-13T04:08:15.149Z,9.06
2023-03-13T04:09:14.976Z,9.09
2023-03-13T04:10:15.171Z,9.09
2023-03-13T04:11:14.910Z,9.10
2023-03-13T04:12:14.893Z,9.10
2023-03-13T04:13:14.856Z,9.10
2023-03-13T04:14:14.883Z,9.09
2023-03-13T04:15:14.847Z,9.10
2023-03-13T04:16:14.887Z,9.10
2023-03-13T04:17:14.822Z,9.09
2023-03-13T04:18:14.890Z,9.06
2023-03-13T04:19:14.829Z,9.06
2023-03-13T04:20:14.825Z,9.06
2023-03-13T04:21:14.869Z,9.05
2023-03-13T04:22:14.878Z,9.06
2023-03-13T04:23:14.756Z,9.04
2023-03-13T04:24:14.795Z,9.02
2023-03-13T04:25:14.801Z,9.01
2023-03-13T04:26:14.813Z,9.02
2023-03-13T04:27:14.748Z,9.01
2023-03-13T04:28:15.703Z,9.01
2023-03-13T04:29:14.675Z,9.02
2023-03-13T04:30:16.311Z,9.02
2023-03-13T04:31:14.689Z,9.02
2023-03-13T04:32:15.711Z,9.02
2023-03-13T04:33:14.638Z,9.01
2023-03-13T04:34:14.668Z,9.02
2023-03-13T04:35:14.649Z,9.02
2023-03-13T04:36:14.677Z,9.02
2023-03-13T04:37:14.605Z,9.01
2023-03-13T04:38:14.626Z,9.01
2023-03-13T04:39:15.540Z,9.01
2023-03-13T04:40:14.606Z,9.02
2023-03-13T04:41:14.599Z,9.05
2023-03-13T04:42:14.572Z,9.05
2023-03-13T04:43:14.651Z,9.06
2023-03-13T04:44:14.655Z,9.09
2023-03-13T04:45:14.542Z,9.06
2023-03-13T04:46:14.590Z,9.06
2023-03-13T04:47:14.497Z,9.09
2023-03-13T04:48:14.508Z,9.10
2023-03-13T04:49:14.514Z,9.10
2023-03-13T04:50:14.532Z,9.12
2023-03-13T04:51:14.500Z,9.12
2023-03-13T04:52:14.474Z,9.15
2023-03-13T04:53:14.416Z,9.12
2023-03-13T04:54:14.440Z,9.12
2023-03-13T04:55:14.394Z,9.13
2023-03-13T04:56:14.388Z,9.15
2023-03-13T04:57:14.473Z,9.12
2023-03-13T04:58:14.391Z,9.12
2023-03-13T04:59:14.386Z,9.13
2023-03-13T05:00:15.301Z,9.13
2023-03-13T05:01:14.474Z,9.13
2023-03-13T05:02:14.371Z,9.15
2023-03-13T05:03:14.378Z,9.13
2023-03-13T05:04:14.304Z,9.15
2023-03-13T05:05:14.480Z,9.15
2023-03-13T05:06:14.299Z,9.16
2023-03-13T05:07:14.297Z,9.16
2023-03-13T05:08:14.271Z,9.16
2023-03-13T05:09:14.273Z,9.16
2023-03-13T05:10:14.250Z,9.18
2023-03-13T05:11:14.264Z,9.16
2023-03-13T05:12:14.224Z,9.18
2023-03-13T05:13:14.238Z,9.18
2023-03-13T05:14:14.190Z,9.18
2023-03-13T05:15:14.205Z,9.20
2023-03-13T05:16:14.261Z,9.20
2023-03-13T05:17:14.174Z,9.20
2023-03-13T05:18:14.161Z,9.20
2023-03-13T05:19:14.152Z,9.18
2023-03-13T05:20:14.138Z,9.18
2023-03-13T05:21:14.156Z,9.20
2023-03-13T05:22:14.103Z,9.21
2023-03-13T05:23:14.112Z,9.21
2023-03-13T05:24:14.073Z,9.20
2023-03-13T05:25:14.115Z,9.23
2023-03-13T05:26:14.046Z,9.23
2023-03-13T05:27:14.064Z,9.23
2023-03-13T05:28:14.037Z,9.23
2023-03-13T05:29:14.069Z,9.21
2023-03-13T05:30:14.027Z,9.24
2023-03-13T05:31:14.135Z,9.25
2023-03-13T05:32:13.997Z,9.25
2023-03-13T05:33:14.014Z,9.27
2023-03-13T05:34:13.965Z,9.28
2023-03-13T05:35:14.139Z,9.30
2023-03-13T05:36:13.966Z,9.34
2023-03-13T05:37:13.956Z,9.34
2023-03-13T05:38:13.920Z,9.39
2023-03-13T05:39:13.934Z,9.38
2023-03-13T05:40:13.900Z,9.39
2023-03-13T05:41:13.933Z,9.42
2023-03-13T05:42:13.902Z,9.42
2023-03-13T05:43:14.174Z,9.45
2023-03-13T05:44:13.928Z,9.49
2023-03-13T05:45:13.886Z,9.52
2023-03-13T05:46:14.056Z,9.57
2023-03-13T05:47:14.194Z,9.67
2023-03-13T05:48:14.149Z,9.70
2023-03-13T05:49:14.062Z,9.73
2023-03-13T05:50:14.182Z,9.73
2023-03-13T05:51:13.883Z,9.75
2023-03-13T05:52:13.909Z,9.75
2023-03-13T05:53:13.891Z,9.76
2023-03-13T05:54:15.505Z,9.78
2023-03-13T05:55:13.773Z,9.79
2023-03-13T05:56:13.759Z,9.79
2023-03-13T05:57:13.732Z,9.82
2023-03-13T05:58:13.706Z,9.85
2023-03-13T05:59:13.769Z,9.85
2023-03-13T06:00:13.699Z,9.82
2023-03-13T06:01:13.948Z,9.82
2023-03-13T06:02:13.658Z,9.85
2023-03-13T06:03:14.482Z,9.86
2023-03-13T06:04:13.986Z,9.89
2023-03-13T06:05:14.639Z,9.91
2023-03-13T06:06:13.690Z,9.93
2023-03-13T06:07:13.684Z,9.93
2023-03-13T06:08:13.588Z,9.96
2023-03-13T06:09:13.667Z,9.97
2023-03-13T06:10:13.576Z,9.97
2023-03-13T06:11:13.620Z,9.99
2023-03-13T06:12:13.556Z,9.97
2023-03-13T06:13:19.812Z,10.00
2023-03-13T06:14:14.528Z,9.99
2023-03-13T06:15:13.625Z,10.00
2023-03-13T06:16:15.255Z,10.01
2023-03-13T06:17:13.532Z,10.01
2023-03-13T06:18:13.591Z,10.00
2023-03-13T06:19:13.533Z,10.01
2023-03-13T06:20:13.464Z,10.01
2023-03-13T06:21:13.475Z,10.00
2023-03-13T06:22:13.479Z,10.00
2023-03-13T06:23:13.545Z,10.01
2023-03-13T06:24:13.414Z,10.03
2023-03-13T06:25:13.438Z,10.04
2023-03-13T06:26:13.385Z,10.04
2023-03-13T06:27:13.411Z,10.06
2023-03-13T06:28:13.376Z,10.06
2023-03-13T06:29:13.379Z,10.06
2023-03-13T06:30:13.405Z,10.04
2023-03-13T06:31:13.437Z,10.04
2023-03-13T06:32:13.422Z,10.04
2023-03-13T06:33:13.439Z,10.03
2023-03-13T06:34:13.382Z,10.03
2023-03-13T06:35:13.334Z,10.06
2023-03-13T06:36:13.408Z,10.06
2023-03-13T06:37:13.361Z,10.07
2023-03-13T06:38:13.256Z,10.07
2023-03-13T06:39:13.319Z,10.07
2023-03-13T06:40:13.408Z,10.07
2023-03-13T06:41:13.273Z,10.09
2023-03-13T06:42:13.217Z,10.09
2023-03-13T06:43:13.220Z,10.12
2023-03-13T06:44:13.203Z,10.14
2023-03-13T06:45:13.239Z,10.14
2023-03-13T06:46:13.188Z,10.14
2023-03-13T06:47:15.487Z,10.15
2023-03-13T06:48:13.143Z,10.14
2023-03-13T06:49:13.171Z,10.15
2023-03-13T06:50:13.138Z,10.15
2023-03-13T06:51:13.164Z,10.18
2023-03-13T06:52:13.112Z,10.18
2023-03-13T06:53:13.133Z,10.21
2023-03-13T06:54:13.092Z,10.22
2023-03-13T06:55:13.137Z,10.25
2023-03-13T06:56:13.085Z,10.25
2023-03-13T06:57:13.095Z,10.24
2023-03-13T06:58:25.268Z,10.26
2023-03-13T06:59:14.095Z,10.26
2023-03-13T07:00:13.027Z,10.28
2023-03-13T07:01:13.125Z,10.30
2023-03-13T07:02:13.023Z,10.30
2023-03-13T07:03:13.023Z,10.28
2023-03-13T07:04:13.054Z,10.30
2023-03-13T07:05:12.981Z,10.32
2023-03-13T07:06:12.950Z,10.32
2023-03-13T07:07:25.857Z,10.34
2023-03-13T07:08:13.997Z,10.34
2023-03-13T07:09:12.944Z,10.34
2023-03-13T07:10:12.941Z,10.34
2023-03-13T07:11:12.925Z,10.36
2023-03-13T07:12:12.888Z,10.34
2023-03-13T07:13:12.908Z,10.34
2023-03-13T07:14:17.408Z,10.34
2023-03-13T07:15:12.940Z,10.34
2023-03-13T07:16:13.008Z,10.36
2023-03-13T07:17:12.885Z,10.37
2023-03-13T07:18:12.818Z,10.39
2023-03-13T07:19:12.857Z,10.43
2023-03-13T07:20:12.844Z,10.42
2023-03-13T07:21:12.821Z,10.42
2023-03-13T07:22:12.790Z,10.44
2023-03-13T07:23:12.810Z,10.46
2023-03-13T07:24:12.814Z,10.52
2023-03-13T07:25:12.800Z,10.53
2023-03-13T07:26:12.866Z,10.56
2023-03-13T07:27:12.863Z,10.58
2023-03-13T07:28:12.732Z,10.59
2023-03-13T07:29:12.750Z,10.59
2023-03-13T07:30:12.704Z,10.62
2023-03-13T07:31:12.784Z,10.63
2023-03-13T07:32:12.675Z,10.68
2023-03-13T07:33:12.711Z,10.70
2023-03-13T07:34:12.643Z,10.70
2023-03-13T07:35:12.664Z,10.71
2023-03-13T07:36:12.657Z,10.71
2023-03-13T07:37:12.635Z,10.76
2023-03-13T07:38:12.615Z,10.78
2023-03-13T07:39:12.612Z,10.81
2023-03-13T07:40:12.574Z,10.83
2023-03-13T07:41:12.588Z,10.83
2023-03-13T07:42:12.559Z,10.86
2023-03-13T07:43:12.567Z,10.89
2023-03-13T07:44:12.524Z,10.91
2023-03-13T07:45:13.383Z,10.91
2023-03-13T07:46:12.612Z,10.91
2023-03-13T07:47:12.518Z,10.92
2023-03-13T07:48:12.513Z,10.94
2023-03-13T07:49:12.501Z,10.96
2023-03-13T07:50:12.752Z,10.96
2023-03-13T07:51:12.496Z,11.01
2023-03-13T07:52:13.009Z,11.03
2023-03-13T07:53:14.956Z,11.02
2023-03-13T07:54:12.499Z,11.07
2023-03-13T07:55:12.498Z,11.07
2023-03-13T07:56:12.400Z,11.09
2023-03-13T07:57:12.401Z,11.10
2023-03-13T07:58:12.388Z,11.11
2023-03-13T07:59:12.422Z,11.14
2023-03-13T08:00:12.365Z,11.16
2023-03-13T08:01:12.651Z,11.19
2023-03-13T08:02:12.408Z,11.21
2023-03-13T08:03:12.422Z,11.25
2023-03-13T08:04:12.308Z,11.24
2023-03-13T08:05:12.349Z,11.25
2023-03-13T08:06:12.299Z,11.27
2023-03-13T08:07:12.301Z,11.25
2023-03-13T08:08:12.275Z,11.25
2023-03-13T08:09:12.275Z,11.27
2023-03-13T08:10:12.285Z,11.28
2023-03-13T08:11:12.302Z,11.29
2023-03-13T08:12:12.220Z,11.31
2023-03-13T08:13:12.709Z,11.32
2023-03-13T08:14:12.206Z,11.31
2023-03-13T08:15:12.221Z,11.34
2023-03-13T08:16:12.310Z,11.32
2023-03-13T08:17:12.215Z,11.35
2023-03-13T08:18:12.152Z,11.36
2023-03-13T08:19:12.170Z,11.39
2023-03-13T08:20:12.154Z,11.41
2023-03-13T08:21:12.150Z,11.43
2023-03-13T08:22:12.118Z,11.46
2023-03-13T08:23:12.144Z,11.47
2023-03-13T08:24:12.087Z,11.47
2023-03-13T08:25:12.131Z,11.49
2023-03-13T08:26:12.060Z,11.50
2023-03-13T08:27:12.088Z,11.50
2023-03-13T08:28:12.039Z,11.52
2023-03-13T08:29:12.082Z,11.53
2023-03-13T08:30:12.023Z,11.54
2023-03-13T08:31:12.065Z,11.54
2023-03-13T08:32:11.997Z,11.54
2023-03-13T08:33:12.111Z,11.54
2023-03-13T08:34:11.973Z,11.54
2023-03-13T08:35:11.996Z,11.54
2023-03-13T08:36:11.949Z,11.59
2023-03-13T08:37:11.983Z,11.59
2023-03-13T08:38:11.925Z,11.62
2023-03-13T08:39:11.949Z,11.62
2023-03-13T08:40:11.899Z,11.65
2023-03-13T08:41:11.946Z,11.68
2023-03-13T08:42:11.890Z,11.70
2023-03-13T08:43:11.923Z,11.72
2023-03-13T08:44:11.987Z,11.75
2023-03-13T08:45:11.870Z,11.75
2023-03-13T08:46:11.958Z,11.78
2023-03-13T08:47:11.859Z,11.80
2023-03-13T08:48:11.831Z,11.82
2023-03-13T08:49:11.855Z,11.83
2023-03-13T08:50:11.795Z,11.85
2023-03-13T08:51:11.815Z,11.86
2023-03-13T08:52:11.805Z,11.90
2023-03-13T08:53:11.798Z,11.94
2023-03-13T08:54:11.749Z,11.97
2023-03-13T08:55:11.782Z,11.97
2023-03-13T08:56:11.733Z,11.97
2023-03-13T08:57:11.752Z,12.01
2023-03-13T08:58:11.703Z,12.02
2023-03-13T08:59:11.742Z,12.04
2023-03-13T09:00:11.722Z,12.08
2023-03-13T09:01:11.700Z,12.08
2023-03-13T09:02:11.771Z,12.12
2023-03-13T09:03:11.745Z,12.16
2023-03-13T09:04:11.734Z,12.23
2023-03-13T09:05:11.726Z,12.27
2023-03-13T09:06:11.639Z,12.33
2023-03-13T09:07:11.630Z,12.37
2023-03-13T09:08:11.590Z,12.44
2023-03-13T09:09:11.617Z,12.49
2023-03-13T09:10:11.593Z,12.52
2023-03-13T09:11:11.613Z,12.54
2023-03-13T09:12:24.524Z,12.56
2023-03-13T09:13:12.554Z,12.60
2023-03-13T09:14:11.587Z,12.60
2023-03-13T09:15:11.535Z,12.63
2023-03-13T09:16:11.591Z,12.64
2023-03-13T09:17:11.505Z,12.63
2023-03-13T09:18:11.530Z,12.63
2023-03-13T09:19:11.483Z,12.63
2023-03-13T09:20:11.526Z,12.64
2023-03-13T09:21:11.454Z,12.67
2023-03-13T09:22:11.477Z,12.70
2023-03-13T09:23:11.472Z,12.71
2023-03-13T09:24:11.474Z,12.74
2023-03-13T09:25:11.422Z,12.77
2023-03-13T09:26:11.466Z,12.77
2023-03-13T09:27:11.377Z,12.79
2023-03-13T09:28:11.407Z,12.84
2023-03-13T09:29:11.366Z,12.85
2023-03-13T09:30:11.388Z,12.87
2023-03-13T09:31:11.463Z,12.89
2023-03-13T09:32:12.062Z,12.92
2023-03-13T09:33:11.324Z,12.89
2023-03-13T09:34:11.337Z,12.92
2023-03-13T09:35:11.304Z,12.93
2023-03-13T09:36:11.426Z,12.96
2023-03-13T09:37:11.302Z,12.97
2023-03-13T09:38:11.297Z,12.99
2023-03-13T09:39:11.279Z,13.00
2023-03-13T09:40:11.270Z,13.06
2023-03-13T09:41:11.264Z,13.06
2023-03-13T09:42:11.262Z,13.07
2023-03-13T09:43:11.224Z,13.12
2023-03-13T09:44:11.253Z,13.15
2023-03-13T09:45:11.189Z,13.15
2023-03-13T09:46:11.210Z,13.17
2023-03-13T09:47:11.177Z,13.17
2023-03-13T09:48:11.181Z,13.14
2023-03-13T09:49:11.163Z,13.14
2023-03-13T09:50:11.156Z,13.15
2023-03-13T09:51:11.161Z,13.15
2023-03-13T09:52:11.182Z,13.15
2023-03-13T09:53:11.127Z,13.15
2023-03-13T09:54:11.114Z,13.15
2023-03-13T09:55:11.074Z,13.15
2023-03-13T09:56:11.090Z,13.17
2023-03-13T09:57:11.064Z,13.18
2023-03-13T09:58:11.072Z,13.15
2023-03-13T09:59:11.035Z,13.15
2023-03-13T10:00:11.044Z,13.17
2023-03-13T10:01:11.166Z,13.18
2023-03-13T10:02:11.029Z,13.20
2023-03-13T10:03:10.978Z,13.24
2023-03-13T10:04:11.036Z,13.24
2023-03-13T10:05:10.958Z,13.25
2023-03-13T10:06:10.989Z,13.29
2023-03-13T10:07:10.956Z,13.30
2023-03-13T10:08:10.945Z,13.36
2023-03-13T10:09:10.920Z,13.40
2023-03-13T10:10:10.948Z,13.44
2023-03-13T10:11:10.896Z,13.47
2023-03-13T10:12:10.912Z,13.54
2023-03-13T10:13:10.886Z,13.58
2023-03-13T10:14:10.906Z,13.59
2023-03-13T10:15:10.865Z,13.62
2023-03-13T10:16:10.911Z,13.63
2023-03-13T10:17:10.822Z,13.65
2023-03-13T10:18:10.860Z,13.69
2023-03-13T10:19:10.813Z,13.70
2023-03-13T10:20:10.843Z,13.70
2023-03-13T10:21:10.784Z,13.69
2023-03-13T10:22:10.822Z,13.69
2023-03-13T10:23:10.977Z,13.67
2023-03-13T10:24:10.794Z,13.69
2023-03-13T10:25:10.780Z,13.70
2023-03-13T10:26:10.744Z,13.70
2023-03-13T10:27:10.725Z,13.69
2023-03-13T10:28:10.735Z,13.69
2023-03-13T10:29:10.712Z,13.69
2023-03-13T10:30:10.710Z,13.69
2023-03-13T10:31:10.761Z,13.70
2023-03-13T10:32:10.718Z,13.71
2023-03-13T10:33:10.655Z,13.76
2023-03-13T10:34:10.667Z,13.81
2023-03-13T10:35:10.640Z,13.87
2023-03-13T10:36:10.794Z,13.91
2023-03-13T10:37:10.642Z,13.96
2023-03-13T10:38:10.618Z,13.98
2023-03-13T10:39:10.624Z,13.99
2023-03-13T10:40:10.606Z,13.99
2023-03-13T10:41:10.565Z,13.99
2023-03-13T10:42:10.571Z,14.02
2023-03-13T10:43:10.542Z,14.04
2023-03-13T10:44:10.560Z,14.06
2023-03-13T10:45:10.548Z,14.04
2023-03-13T10:46:10.606Z,14.01
2023-03-13T10:47:10.501Z,14.04
2023-03-13T10:48:10.501Z,14.01
2023-03-13T10:49:10.479Z,14.02
2023-03-13T10:50:10.497Z,13.98
2023-03-13T10:51:10.459Z,14.01
2023-03-13T10:52:10.535Z,13.99
2023-03-13T10:53:10.435Z,14.01
2023-03-13T10:54:10.451Z,14.01
2023-03-13T10:55:10.426Z,14.06
2023-03-13T10:56:10.426Z,14.07
2023-03-13T10:57:10.382Z,14.09
2023-03-13T10:58:10.421Z,14.13
2023-03-13T10:59:10.378Z,14.16
2023-03-13T11:00:10.386Z,14.24
2023-03-13T11:01:10.335Z,14.28
2023-03-13T11:02:10.551Z,14.32
2023-03-13T11:03:10.472Z,14.31
2023-03-13T11:04:10.349Z,14.32
2023-03-13T11:05:13.137Z,14.35
2023-03-13T11:06:10.320Z,14.38
2023-03-13T11:07:10.290Z,14.39
2023-03-13T11:08:10.323Z,14.39
2023-03-13T11:09:10.282Z,14.42
2023-03-13T11:10:10.277Z,14.43
2023-03-13T11:11:10.236Z,14.42
2023-03-13T11:12:10.271Z,14.43
2023-03-13T11:13:10.206Z,14.43
2023-03-13T11:14:10.214Z,14.44
2023-03-13T11:15:10.242Z,14.43
2023-03-13T11:16:10.257Z,14.44
2023-03-13T11:17:10.172Z,14.43
2023-03-13T11:18:10.190Z,14.44
2023-03-13T11:19:10.164Z,14.43
2023-03-13T11:20:10.154Z,14.39
2023-03-13T11:21:18.185Z,14.42
2023-03-13T11:22:11.245Z,14.39
2023-03-13T11:23:10.113Z,14.37
2023-03-13T11:24:10.111Z,14.37
2023-03-13T11:25:10.111Z,14.37
2023-03-13T11:26:10.100Z,14.34
2023-03-13T11:27:10.087Z,14.35
2023-03-13T11:28:10.084Z,14.34
2023-03-13T11:29:10.036Z,14.34
2023-03-13T11:30:10.049Z,14.35
2023-03-13T11:31:10.076Z,14.32
2023-03-13T11:32:10.060Z,14.35
2023-03-13T11:33:10.027Z,14.35
2023-03-13T11:34:10.005Z,14.37
2023-03-13T11:35:09.990Z,14.37
2023-03-13T11:36:10.052Z,14.38
2023-03-13T11:37:09.969Z,14.35
2023-03-13T11:38:09.955Z,14.38
2023-03-13T11:39:09.910Z,14.35
2023-03-13T11:40:09.937Z,14.34
2023-03-13T11:41:09.956Z,14.34
2023-03-13T11:42:09.928Z,14.34
2023-03-13T11:43:24.202Z,14.35
2023-03-13T11:44:10.883Z,14.35
2023-03-13T11:45:09.884Z,14.35
2023-03-13T11:46:10.094Z,14.35
2023-03-13T11:47:09.926Z,14.37
2023-03-13T11:48:09.859Z,14.37
2023-03-13T11:49:10.774Z,14.37
2023-03-13T11:50:09.833Z,14.38
2023-03-13T11:51:09.826Z,14.42
2023-03-13T11:52:09.809Z,14.44
2023-03-13T11:53:10.202Z,14.44
2023-03-13T11:54:09.805Z,14.47
2023-03-13T11:55:09.741Z,14.50
2023-03-13T11:56:09.772Z,14.52
2023-03-13T11:57:09.732Z,14.56
2023-03-13T11:58:09.725Z,14.62
2023-03-13T11:59:09.702Z,14.67
2023-03-13T12:00:09.709Z,14.68
2023-03-13T12:01:09.715Z,14.68
2023-03-13T12:02:09.732Z,14.65
2023-03-13T12:03:09.734Z,14.65
2023-03-13T12:04:09.685Z,14.65
2023-03-13T12:05:09.779Z,14.64
2023-03-13T12:06:21.849Z,14.65
2023-03-13T12:07:10.628Z,14.67
2023-03-13T12:08:09.640Z,14.64
2023-03-13T12:09:09.595Z,14.64
2023-03-13T12:10:09.628Z,14.64
2023-03-13T12:11:09.574Z,14.64
2023-03-13T12:12:09.589Z,14.67
2023-03-13T12:13:09.563Z,14.72
2023-03-13T12:14:09.556Z,14.75
2023-03-13T12:15:09.515Z,14.80
2023-03-13T12:16:10.582Z,14.84
2023-03-13T12:17:09.506Z,14.87
2023-03-13T12:18:09.539Z,14.90
2023-03-13T12:19:09.496Z,14.91
2023-03-13T12:20:09.507Z,14.94
2023-03-13T12:21:09.464Z,14.94
2023-03-13T12:22:09.543Z,14.94
2023-03-13T12:23:09.450Z,14.94
2023-03-13T12:24:09.501Z,14.95
2023-03-13T12:25:09.489Z,14.93
2023-03-13T12:26:09.452Z,14.94
2023-03-13T12:27:09.390Z,14.94
2023-03-13T12:28:09.476Z,14.95
2023-03-13T12:29:09.371Z,14.94
2023-03-13T12:30:09.555Z,14.93
2023-03-13T12:31:09.364Z,14.93
2023-03-13T12:32:09.385Z,14.91
2023-03-13T12:33:09.315Z,14.93
2023-03-13T12:34:09.344Z,14.93
2023-03-13T12:35:09.310Z,14.91
2023-03-13T12:36:09.377Z,14.88
2023-03-13T12:37:09.306Z,14.86
2023-03-13T12:38:09.297Z,14.86
2023-03-13T12:39:09.275Z,14.84
2023-03-13T12:40:11.915Z,14.81
2023-03-13T12:41:09.250Z,14.81
2023-03-13T12:42:09.247Z,14.78
2023-03-13T12:43:09.231Z,14.78
2023-03-13T12:44:09.706Z,14.78
2023-03-13T12:45:09.198Z,14.75
2023-03-13T12:46:09.304Z,14.80
2023-03-13T12:47:09.197Z,14.80
2023-03-13T12:48:09.243Z,14.81
2023-03-13T12:49:09.152Z,14.83
2023-03-13T12:50:09.171Z,14.81
2023-03-13T12:51:09.127Z,14.81
2023-03-13T12:52:10.091Z,14.81
2023-03-13T12:53:09.100Z,14.81
2023-03-13T12:54:09.174Z,14.80
2023-03-13T12:55:09.093Z,14.80
2023-03-13T12:56:09.162Z,14.75
2023-03-13T12:57:09.061Z,14.75
2023-03-13T12:58:09.100Z,14.72
2023-03-13T12:59:09.056Z,14.69
2023-03-13T13:00:09.092Z,14.69
2023-03-13T13:01:09.020Z,14.68
2023-03-13T13:02:09.033Z,14.65
2023-03-13T13:03:08.993Z,14.67
2023-03-13T13:04:09.054Z,14.68